createdAt,value
2022-11-10T00:02:49.312Z,11.63
2022-11-10T00:06:10.843Z,11.64
2022-11-10T00:09:32.774Z,11.74
2022-11-10T00:12:54.022Z,11.57
2022-11-10T00:16:34.019Z,11.79
2022-11-10T00:19:55.361Z,11.69
2022-11-10T00:23:16.218Z,11.59
2022-11-10T00:26:37.202Z,11.70
2022-11-10T00:29:57.682Z,11.62
2022-11-10T00:33:19.116Z,11.55
2022-11-10T00:36:40.714Z,11.60
2022-11-10T00:40:01.818Z,11.83
2022-11-10T00:43:26.494Z,11.73
2022-11-10T00:46:47.916Z,12.08
2022-11-10T00:50:09.346Z,11.75
2022-11-10T00:53:31.013Z,11.77
2022-11-10T00:56:53.006Z,11.76
2022-11-10T01:00:14.292Z,11.78
2022-11-10T01:03:35.373Z,11.63
2022-11-10T01:06:56.293Z,11.76
2022-11-10T01:10:17.626Z,11.67
2022-11-10T01:13:40.585Z,11.56
2022-11-10T01:17:02.128Z,11.63
2022-11-10T01:20:23.746Z,11.71
2022-11-10T01:23:45.414Z,11.62
2022-11-10T01:27:06.876Z,11.71
2022-11-10T01:30:28.443Z,11.70
2022-11-10T01:33:49.926Z,11.65
2022-11-10T01:37:12.800Z,11.86
2022-11-10T01:40:34.073Z,11.58
2022-11-10T01:43:55.036Z,11.70
2022-11-10T01:47:16.173Z,11.78
2022-11-10T01:50:40.374Z,11.60
2022-11-10T01:54:04.745Z,11.55
2022-11-10T01:57:26.039Z,11.48
2022-11-10T02:00:47.244Z,11.48
2022-11-10T02:04:10.408Z,11.61
2022-11-10T02:07:32.249Z,11.59
2022-11-10T02:10:53.662Z,11.55
2022-11-10T02:14:15.734Z,11.51
2022-11-10T02:17:37.409Z,11.63
2022-11-10T02:20:58.358Z,11.57
2022-11-10T02:24:19.595Z,11.63
2022-11-10T02:27:40.487Z,11.53
2022-11-10T02:31:01.717Z,11.64
2022-11-10T02:34:23.274Z,11.51
2022-11-10T02:37:44.733Z,11.76
2022-11-10T02:41:05.893Z,11.70
2022-11-10T02:44:27.145Z,11.69
2022-11-10T02:47:48.314Z,11.63
2022-11-10T02:51:10.765Z,11.46
2022-11-10T02:54:32.193Z,11.42
2022-11-10T02:57:53.035Z,11.20
2022-11-10T03:01:14.870Z,11.32
2022-11-10T03:04:35.545Z,11.52
2022-11-10T03:08:02.136Z,11.30
2022-11-10T03:11:27.986Z,11.55
2022-11-10T03:14:52.150Z,11.54
2022-11-10T03:18:13.061Z,11.49
2022-11-10T03:21:34.674Z,11.35
2022-11-10T03:24:55.911Z,11.50
2022-11-10T03:28:17.473Z,11.62
2022-11-10T03:31:39.107Z,11.52
2022-11-10T03:35:00.809Z,11.53
2022-11-10T03:38:21.778Z,11.41
2022-11-10T03:41:43.215Z,11.48
2022-11-10T03:45:06.617Z,11.15
2022-11-10T03:48:28.129Z,11.37
2022-11-10T03:51:49.669Z,11.28
2022-11-10T03:55:17.387Z,11.30
2022-11-10T03:58:39.099Z,11.20
2022-11-10T04:02:02.442Z,11.28
2022-11-10T04:05:42.333Z,11.24
2022-11-10T04:09:04.619Z,11.24
2022-11-10T04:12:45.078Z,11.21
2022-11-10T04:16:06.451Z,11.33
2022-11-10T04:19:27.857Z,11.30
2022-11-10T04:23:07.432Z,11.25
2022-11-10T04:26:29.346Z,11.14
2022-11-10T04:29:51.007Z,10.92
2022-11-10T04:33:12.830Z,11.04
2022-11-10T04:36:37.194Z,11.23
2022-11-10T04:40:00.166Z,11.04
2022-11-10T04:43:21.637Z,11.13
2022-11-10T04:46:44.389Z,11.05
2022-11-10T04:50:05.268Z,11.11
2022-11-10T04:53:26.784Z,11.25
2022-11-10T04:56:47.886Z,11.13
2022-11-10T05:00:10.638Z,11.11
2022-11-10T05:03:32.695Z,11.10
2022-11-10T05:06:55.080Z,10.98
2022-11-10T05:10:20.623Z,10.98
2022-11-10T05:13:41.988Z,11.05
2022-11-10T05:17:03.528Z,11.03
2022-11-10T05:20:27.262Z,10.97
2022-11-10T05:23:48.260Z,11.14
2022-11-10T05:27:09.168Z,11.17
2022-11-10T05:30:30.499Z,11.35
2022-11-10T05:33:51.633Z,11.32
2022-11-10T05:37:14.134Z,11.32
2022-11-10T05:40:35.513Z,11.21
2022-11-10T05:43:56.404Z,11.11
2022-11-10T05:47:17.237Z,11.15
2022-11-10T05:50:38.478Z,10.97
2022-11-10T05:53:59.872Z,10.99
2022-11-10T05:57:21.459Z,10.86
2022-11-10T06:00:42.694Z,11.07
2022-11-10T06:04:03.532Z,11.17
2022-11-10T06:07:24.436Z,11.16
2022-11-10T06:10:45.394Z,10.90
2022-11-10T06:14:09.254Z,10.73
2022-11-10T06:17:30.661Z,10.81
2022-11-10T06:20:52.913Z,10.89
2022-11-10T06:24:13.803Z,10.86
2022-11-10T06:27:35.289Z,10.95
2022-11-10T06:30:59.195Z,11.08
2022-11-10T06:34:22.200Z,10.93
2022-11-10T06:37:43.894Z,11.13
2022-11-10T06:41:05.540Z,10.91
2022-11-10T06:44:27.501Z,11.23
2022-11-10T06:47:49.695Z,11.32
2022-11-10T06:51:10.834Z,11.33
2022-11-10T06:54:32.253Z,11.35
2022-11-10T06:57:53.703Z,11.39
2022-11-10T07:01:17.635Z,11.39
2022-11-10T07:04:45.582Z,11.50
2022-11-10T07:08:16.075Z,11.60
2022-11-10T07:11:37.093Z,11.56
2022-11-10T07:14:58.107Z,11.69
2022-11-10T07:18:19.100Z,11.63
2022-11-10T07:21:40.387Z,11.56
2022-11-10T07:25:03.128Z,11.53
2022-11-10T07:28:28.349Z,11.47
2022-11-10T07:31:50.385Z,11.43
2022-11-10T07:35:11.699Z,11.48
2022-11-10T07:38:32.995Z,11.43
2022-11-10T07:41:54.748Z,11.32
2022-11-10T07:45:15.963Z,11.48
2022-11-10T07:48:40.219Z,11.60
2022-11-10T07:52:02.245Z,11.52
2022-11-10T07:55:23.839Z,11.67
2022-11-10T07:58:45.186Z,11.67
2022-11-10T08:02:06.879Z,11.82
2022-11-10T08:05:28.512Z,11.99
2022-11-10T08:08:49.807Z,11.99
2022-11-10T08:12:12.671Z,12.17
2022-11-10T08:15:34.619Z,11.94
2022-11-10T08:18:55.517Z,12.13
2022-11-10T08:22:16.681Z,12.17
2022-11-10T08:25:38.320Z,12.20
2022-11-10T08:28:59.655Z,12.29
2022-11-10T08:32:22.314Z,12.12
2022-11-10T08:35:46.289Z,12.12
2022-11-10T08:39:07.844Z,12.19
2022-11-10T08:42:28.971Z,12.48
2022-11-10T08:45:49.897Z,12.71
2022-11-10T08:49:11.199Z,12.78
2022-11-10T08:52:33.067Z,12.96
2022-11-10T08:55:54.469Z,12.94
2022-11-10T08:59:26.622Z,12.67
2022-11-10T09:02:47.785Z,12.87
2022-11-10T09:06:09.000Z,12.92
2022-11-10T09:09:30.561Z,12.85
2022-11-10T09:12:52.134Z,12.90
2022-11-10T09:16:13.918Z,12.90
2022-11-10T09:19:35.928Z,13.02
2022-11-10T09:22:57.487Z,12.75
2022-11-10T09:26:18.557Z,12.96
2022-11-10T09:29:41.305Z,13.08
2022-11-10T09:33:02.061Z,13.20
2022-11-10T09:36:23.876Z,12.81
2022-11-10T09:39:45.954Z,13.01
2022-11-10T09:43:16.047Z,13.47
2022-11-10T09:46:40.858Z,13.26
2022-11-10T09:50:04.093Z,13.18
2022-11-10T09:53:51.989Z,13.53
2022-11-10T09:57:19.185Z,13.31
2022-11-10T10:00:42.820Z,12.96
2022-11-10T10:04:03.837Z,13.45
2022-11-10T10:07:32.148Z,13.23
2022-11-10T10:11:21.170Z,13.32
2022-11-10T10:14:52.707Z,13.68
2022-11-10T10:18:31.769Z,13.96
2022-11-10T10:22:26.360Z,14.01
2022-11-10T10:25:48.750Z,13.88
2022-11-10T10:29:23.790Z,13.82
2022-11-10T10:32:45.175Z,13.95
2022-11-10T10:36:11.208Z,13.66
2022-11-10T10:39:38.090Z,13.79
2022-11-10T10:43:00.516Z,14.20
2022-11-10T10:46:34.397Z,14.12
2022-11-10T10:50:17.283Z,14.17
2022-11-10T10:53:48.829Z,14.47
2022-11-10T10:57:22.892Z,14.06
2022-11-10T11:00:46.045Z,14.34
2022-11-10T11:04:36.153Z,14.16
2022-11-10T11:08:02.289Z,14.49
2022-11-10T11:11:28.183Z,14.52
2022-11-10T11:14:49.983Z,14.50
2022-11-10T11:18:17.849Z,14.78
2022-11-10T11:21:47.561Z,14.40
2022-11-10T11:25:25.686Z,14.55
2022-11-10T11:29:45.470Z,14.37
2022-11-10T11:33:20.062Z,14.31
2022-11-10T11:37:05.357Z,14.39
2022-11-10T11:41:08.139Z,14.38
2022-11-10T11:45:03.266Z,14.65
2022-11-10T11:48:52.864Z,14.44
2022-11-10T11:52:33.372Z,14.56
2022-11-10T11:56:07.212Z,14.52
2022-11-10T11:59:31.450Z,14.73
2022-11-10T12:02:58.482Z,14.55
2022-11-10T12:06:35.963Z,14.20
2022-11-10T12:10:40.547Z,14.10
2022-11-10T12:14:49.946Z,15.10
2022-11-10T12:18:31.869Z,15.27
2022-11-10T12:21:59.099Z,15.35
2022-11-10T12:25:30.164Z,15.53
2022-11-10T12:29:04.185Z,15.77
2022-11-10T12:32:36.425Z,15.67
2022-11-10T12:35:58.879Z,14.77
2022-11-10T12:39:24.253Z,14.44
2022-11-10T12:42:48.266Z,14.49
2022-11-10T12:46:12.446Z,14.24
2022-11-10T12:49:36.772Z,14.47
2022-11-10T12:53:03.307Z,14.34
2022-11-10T12:56:35.232Z,14.29
2022-11-10T13:00:06.298Z,14.21
2022-11-10T13:03:34.501Z,13.98
2022-11-10T13:06:58.605Z,14.22
2022-11-10T13:10:19.804Z,14.35
2022-11-10T13:13:46.927Z,14.13
2022-11-10T13:17:09.506Z,14.07
2022-11-10T13:20:39.695Z,14.12
2022-11-10T13:24:03.517Z,14.07
2022-11-10T13:27:37.125Z,14.21
2022-11-10T13:30:58.309Z,14.24
2022-11-10T13:34:20.048Z,14.35
2022-11-10T13:37:42.710Z,14.39
2022-11-10T13:41:26.004Z,13.97
2022-11-10T13:44:47.769Z,14.29
2022-11-10T13:48:11.721Z,14.10
2022-11-10T13:51:39.589Z,14.22
2022-11-10T13:55:35.928Z,13.85
2022-11-10T13:58:58.171Z,13.88
2022-11-10T14:02:34.185Z,13.74
2022-11-10T14:05:58.287Z,13.42
2022-11-10T14:09:39.998Z,13.27
2022-11-10T14:13:11.759Z,12.90
2022-11-10T14:16:34.055Z,13.42
2022-11-10T14:19:55.509Z,13.51
2022-11-10T14:23:26.226Z,13.56
2022-11-10T14:26:55.909Z,13.55
2022-11-10T14:30:24.967Z,13.45
2022-11-10T14:33:57.176Z,13.26
2022-11-10T14:37:24.457Z,13.52
2022-11-10T14:40:45.494Z,13.51
2022-11-10T14:44:09.190Z,13.46
2022-11-10T14:47:31.435Z,13.24
2022-11-10T14:50:53.384Z,13.06
2022-11-10T14:54:23.538Z,12.89
2022-11-10T14:57:52.225Z,12.72
2022-11-10T15:01:29.318Z,12.62
2022-11-10T15:04:51.886Z,12.60
2022-11-10T15:08:16.393Z,12.38
2022-11-10T15:11:53.737Z,12.22
2022-11-10T15:15:23.778Z,12.03
2022-11-10T15:18:45.918Z,11.87
2022-11-10T15:22:07.870Z,11.74
2022-11-10T15:25:40.531Z,11.91
2022-11-10T15:29:01.776Z,11.95
2022-11-10T15:32:33.931Z,11.90
2022-11-10T15:35:57.070Z,11.86
2022-11-10T15:39:23.539Z,11.84
2022-11-10T15:42:44.230Z,11.81
2022-11-10T15:46:18.160Z,11.86
2022-11-10T15:49:40.645Z,11.82
2022-11-10T15:53:14.567Z,11.69
2022-11-10T15:56:36.719Z,11.58
2022-11-10T15:59:57.788Z,11.46
2022-11-10T16:03:20.842Z,11.27
2022-11-10T16:06:44.078Z,11.17
2022-11-10T16:10:06.831Z,11.08
2022-11-10T16:13:30.376Z,10.99
2022-11-10T16:16:51.513Z,11.09
2022-11-10T16:20:15.197Z,11.09
2022-11-10T16:23:36.370Z,11.18
2022-11-10T16:26:57.467Z,11.11
2022-11-10T16:30:23.237Z,10.97
2022-11-10T16:33:45.455Z,11.02
2022-11-10T16:37:06.865Z,10.89
2022-11-10T16:40:28.148Z,10.75
2022-11-10T16:43:49.453Z,10.69
2022-11-10T16:47:17.030Z,10.70
2022-11-10T16:50:38.881Z,10.61
2022-11-10T16:54:02.322Z,10.77
2022-11-10T16:57:23.631Z,10.67
2022-11-10T17:00:45.360Z,10.83
2022-11-10T17:04:11.543Z,10.76
2022-11-10T17:07:34.570Z,10.81
2022-11-10T17:10:58.402Z,10.85
2022-11-10T17:14:20.719Z,10.85
2022-11-10T17:17:44.569Z,10.81
2022-11-10T17:21:08.100Z,10.63
2022-11-10T17:24:29.413Z,10.58
2022-11-10T17:27:50.952Z,10.66
2022-11-10T17:31:14.049Z,10.74
2022-11-10T17:34:35.186Z,10.58
2022-11-10T17:37:59.826Z,10.51
2022-11-10T17:41:22.493Z,10.71
2022-11-10T17:44:47.961Z,10.75
2022-11-10T17:48:08.959Z,10.68
2022-11-10T17:51:31.242Z,10.71
2022-11-10T17:54:58.662Z,10.52
2022-11-10T17:58:21.032Z,10.40
2022-11-10T18:01:42.170Z,10.43
2022-11-10T18:05:07.115Z,10.54
2022-11-10T18:08:28.012Z,10.58
2022-11-10T18:11:49.355Z,10.73
2022-11-10T18:15:17.476Z,10.72
2022-11-10T18:18:38.850Z,10.66
2022-11-10T18:21:59.881Z,10.57
2022-11-10T18:25:21.038Z,10.48
2022-11-10T18:28:43.357Z,10.33
2022-11-10T18:32:05.063Z,10.29
2022-11-10T18:35:26.237Z,10.20
2022-11-10T18:38:47.790Z,9.85
2022-11-10T18:42:09.577Z,10.07
2022-11-10T18:45:30.649Z,10.08
2022-11-10T18:48:51.706Z,10.00
2022-11-10T18:52:12.880Z,10.01
2022-11-10T18:55:33.725Z,10.00
2022-11-10T18:58:56.925Z,10.03
2022-11-10T19:02:18.207Z,10.06
2022-11-10T19:05:42.784Z,10.18
2022-11-10T19:09:04.496Z,10.13
2022-11-10T19:12:26.844Z,10.12
2022-11-10T19:15:51.490Z,10.10
2022-11-10T19:19:12.615Z,10.13
2022-11-10T19:22:33.816Z,10.02
2022-11-10T19:26:10.399Z,10.00
2022-11-10T19:29:31.432Z,9.86
2022-11-10T19:32:52.462Z,9.80
2022-11-10T19:36:18.869Z,9.92
2022-11-10T19:39:40.140Z,9.86
2022-11-10T19:43:01.523Z,9.76
2022-11-10T19:46:27.991Z,9.69
2022-11-10T19:49:49.139Z,9.61
2022-11-10T19:53:10.916Z,9.70
2022-11-10T19:56:34.614Z,9.49
2022-11-10T19:59:56.854Z,9.57
2022-11-10T20:03:17.946Z,9.66
2022-11-10T20:06:39.326Z,9.70
2022-11-10T20:10:01.016Z,9.58
2022-11-10T20:13:22.558Z,9.59
2022-11-10T20:16:44.018Z,9.70
2022-11-10T20:20:06.473Z,9.56
2022-11-10T20:23:27.838Z,9.59
2022-11-10T20:26:50.631Z,9.60
2022-11-10T20:30:11.916Z,9.69
2022-11-10T20:33:33.465Z,9.76
2022-11-10T20:36:55.697Z,9.95
2022-11-10T20:40:42.762Z,9.88
2022-11-10T20:43:58.643Z,9.80
2022-11-10T20:47:19.692Z,9.72
2022-11-10T20:50:41.270Z,9.64
2022-11-10T20:54:02.634Z,9.57
2022-11-10T20:57:24.889Z,9.60
2022-11-10T21:00:45.799Z,9.64
2022-11-10T21:04:07.212Z,9.59
2022-11-10T21:07:29.143Z,9.41
2022-11-10T21:10:58.160Z,9.46
2022-11-10T21:14:19.414Z,9.50
2022-11-10T21:17:44.056Z,9.00
2022-11-10T21:21:05.679Z,9.51
2022-11-10T21:24:28.285Z,9.54
2022-11-10T21:27:50.215Z,9.60
2022-11-10T21:31:11.993Z,9.68
2022-11-10T21:34:33.362Z,9.59
2022-11-10T21:37:54.790Z,9.55
2022-11-10T21:41:16.159Z,9.59
2022-11-10T21:44:38.529Z,9.56
2022-11-10T21:48:02.914Z,9.61
2022-11-10T21:51:23.814Z,9.67
2022-11-10T21:54:45.096Z,9.55
2022-11-10T21:58:06.399Z,9.62
2022-11-10T22:01:27.678Z,9.63
2022-11-10T22:04:49.618Z,9.57
2022-11-10T22:08:11.254Z,9.54
2022-11-10T22:11:51.353Z,9.62
2022-11-10T22:15:33.965Z,9.54
2022-11-10T22:18:55.188Z,9.59
2022-11-10T22:22:16.547Z,9.61
2022-11-10T22:25:37.355Z,9.79
2022-11-10T22:28:58.426Z,9.87
2022-11-10T22:32:19.766Z,10.23
2022-11-10T22:35:43.901Z,10.19
2022-11-10T22:39:05.929Z,10.24
2022-11-10T22:42:59.622Z,10.22
2022-11-10T22:46:20.482Z,9.81
2022-11-10T22:49:41.582Z,10.31
2022-11-10T22:53:02.957Z,10.26
2022-11-10T22:56:23.757Z,10.20
2022-11-10T22:59:45.667Z,10.21
2022-11-10T23:03:07.690Z,10.27
2022-11-10T23:06:30.204Z,10.59
2022-11-10T23:09:51.847Z,10.36
2022-11-10T23:13:15.294Z,10.47
2022-11-10T23:16:36.394Z,10.59
2022-11-10T23:19:57.980Z,10.63
2022-11-10T23:23:19.140Z,10.51
2022-11-10T23:26:41.050Z,10.66
2022-11-10T23:30:02.859Z,10.43
2022-11-10T23:33:28.708Z,10.43
2022-11-10T23:36:52.061Z,10.55
2022-11-10T23:40:13.740Z,10.37
2022-11-10T23:43:34.873Z,10.60
2022-11-10T23:46:55.798Z,10.74
2022-11-10T23:50:17.161Z,10.24
2022-11-10T23:53:38.392Z,10.46
2022-11-10T23:56:59.872Z,10.36
